sensor_id;sensor_type;location;lat;lon;timestamp;temperature;humidity
43647;DHT22;56152;49.996;18.980;2022-07-24T00:04:54;19.60;95.30
43647;DHT22;56152;49.996;18.980;2022-07-24T00:09:59;19.60;95.20
43647;DHT22;56152;49.996;18.980;2022-07-24T00:15:01;19.60;95.30
43647;DHT22;56152;49.996;18.980;2022-07-24T00:20:05;19.60;95.30
43647;DHT22;56152;49.996;18.980;2022-07-24T00:25:10;19.60;95.30
43647;DHT22;56152;49.996;18.980;2022-07-24T00:30:13;19.60;95.40
43647;DHT22;56152;49.996;18.980;2022-07-24T00:35:16;19.60;95.40
43647;DHT22;56152;49.996;18.980;2022-07-24T00:40:20;19.60;95.40
43647;DHT22;56152;49.996;18.980;2022-07-24T00:45:22;19.60;95.40
43647;DHT22;56152;49.996;18.980;2022-07-24T00:50:27;19.50;95.40
43647;DHT22;56152;49.996;18.980;2022-07-24T00:55:32;19.50;95.40
43647;DHT22;56152;49.996;18.980;2022-07-24T01:00:34;19.50;95.50
43647;DHT22;56152;49.996;18.980;2022-07-24T01:05:36;19.50;95.60
43647;DHT22;56152;49.996;18.980;2022-07-24T01:10:42;19.40;95.60
43647;DHT22;56152;49.996;18.980;2022-07-24T01:15:46;19.40;95.70
43647;DHT22;56152;49.996;18.980;2022-07-24T01:20:52;19.30;95.70
43647;DHT22;56152;49.996;18.980;2022-07-24T01:25:56;19.30;95.80
43647;DHT22;56152;49.996;18.980;2022-07-24T01:30:59;19.30;95.80
43647;DHT22;56152;49.996;18.980;2022-07-24T01:36:04;19.20;95.80
43647;DHT22;56152;49.996;18.980;2022-07-24T01:41:06;19.20;95.90
43647;DHT22;56152;49.996;18.980;2022-07-24T01:46:10;19.20;95.90
43647;DHT22;56152;49.996;18.980;2022-07-24T01:51:15;19.10;95.80
43647;DHT22;56152;49.996;18.980;2022-07-24T01:56:18;19.10;95.90
43647;DHT22;56152;49.996;18.980;2022-07-24T02:01:27;19.00;95.90
43647;DHT22;56152;49.996;18.980;2022-07-24T02:06:31;19.00;96.00
43647;DHT22;56152;49.996;18.980;2022-07-24T02:11:33;19.00;96.00
43647;DHT22;56152;49.996;18.980;2022-07-24T02:16:35;18.90;96.00
43647;DHT22;56152;49.996;18.980;2022-07-24T02:21:39;18.90;96.00
43647;DHT22;56152;49.996;18.980;2022-07-24T02:26:41;18.90;95.90
43647;DHT22;56152;49.996;18.980;2022-07-24T02:31:43;18.90;95.90
43647;DHT22;56152;49.996;18.980;2022-07-24T02:36:47;18.90;95.90
43647;DHT22;56152;49.996;18.980;2022-07-24T02:41:51;18.80;95.80
43647;DHT22;56152;49.996;18.980;2022-07-24T02:46:53;18.70;95.90
43647;DHT22;56152;49.996;18.980;2022-07-24T02:51:56;18.60;95.90
43647;DHT22;56152;49.996;18.980;2022-07-24T02:56:59;18.60;95.90
43647;DHT22;56152;49.996;18.980;2022-07-24T03:02:07;18.50;95.90
43647;DHT22;56152;49.996;18.980;2022-07-24T03:07:11;18.40;95.90
43647;DHT22;56152;49.996;18.980;2022-07-24T03:12:13;18.20;95.80
43647;DHT22;56152;49.996;18.980;2022-07-24T03:17:16;18.20;95.90
43647;DHT22;56152;49.996;18.980;2022-07-24T03:22:21;18.10;95.90
43647;DHT22;56152;49.996;18.980;2022-07-24T03:27:23;18.00;95.90
43647;DHT22;56152;49.996;18.980;2022-07-24T03:32:25;18.00;95.90
43647;DHT22;56152;49.996;18.980;2022-07-24T03:37:30;18.00;95.90
43647;DHT22;56152;49.996;18.980;2022-07-24T03:42:33;18.00;95.80
43647;DHT22;56152;49.996;18.980;2022-07-24T03:47:34;18.00;95.70
43647;DHT22;56152;49.996;18.980;2022-07-24T03:52:38;18.00;95.80
43647;DHT22;56152;49.996;18.980;2022-07-24T03:57:41;18.00;95.80
43647;DHT22;56152;49.996;18.980;2022-07-24T04:02:43;17.90;95.80
43647;DHT22;56152;49.996;18.980;2022-07-24T04:07:47;18.00;95.80
43647;DHT22;56152;49.996;18.980;2022-07-24T04:12:49;18.00;95.80
43647;DHT22;56152;49.996;18.980;2022-07-24T04:17:52;18.00;95.70
43647;DHT22;56152;49.996;18.980;2022-07-24T04:22:56;18.10;95.70
43647;DHT22;56152;49.996;18.980;2022-07-24T04:27:59;18.10;95.70
43647;DHT22;56152;49.996;18.980;2022-07-24T04:33:02;18.20;95.50
43647;DHT22;56152;49.996;18.980;2022-07-24T04:38:07;18.40;95.40
43647;DHT22;56152;49.996;18.980;2022-07-24T04:43:13;18.50;95.40
43647;DHT22;56152;49.996;18.980;2022-07-24T04:48:17;18.80;95.10
43647;DHT22;56152;49.996;18.980;2022-07-24T04:53:25;19.00;94.70
43647;DHT22;56152;49.996;18.980;2022-07-24T04:58:27;19.20;94.50
43647;DHT22;56152;49.996;18.980;2022-07-24T05:03:29;19.40;94.10
43647;DHT22;56152;49.996;18.980;2022-07-24T05:08:35;19.50;93.90
43647;DHT22;56152;49.996;18.980;2022-07-24T05:13:38;19.70;93.50
43647;DHT22;56152;49.996;18.980;2022-07-24T05:18:40;19.90;93.10
43647;DHT22;56152;49.996;18.980;2022-07-24T05:23:44;20.20;92.80
43647;DHT22;56152;49.996;18.980;2022-07-24T05:28:46;20.30;92.60
43647;DHT22;56152;49.996;18.980;2022-07-24T05:33:48;20.60;92.30
43647;DHT22;56152;49.996;18.980;2022-07-24T05:38:52;20.70;91.80
43647;DHT22;56152;49.996;18.980;2022-07-24T05:43:54;20.90;91.50
43647;DHT22;56152;49.996;18.980;2022-07-24T05:48:56;21.10;91.20
43647;DHT22;56152;49.996;18.980;2022-07-24T05:53:59;21.40;90.70
43647;DHT22;56152;49.996;18.980;2022-07-24T05:59:01;21.60;90.30
43647;DHT22;56152;49.996;18.980;2022-07-24T06:04:03;21.80;89.70
43647;DHT22;56152;49.996;18.980;2022-07-24T06:09:09;22.00;88.30
43647;DHT22;56152;49.996;18.980;2022-07-24T06:14:10;22.20;87.90
43647;DHT22;56152;49.996;18.980;2022-07-24T06:19:13;22.40;87.10
43647;DHT22;56152;49.996;18.980;2022-07-24T06:24:17;22.70;85.90
43647;DHT22;56152;49.996;18.980;2022-07-24T06:29:18;22.80;85.00
43647;DHT22;56152;49.996;18.980;2022-07-24T06:34:20;22.80;84.20
43647;DHT22;56152;49.996;18.980;2022-07-24T06:39:26;22.90;84.30
43647;DHT22;56152;49.996;18.980;2022-07-24T06:44:31;23.20;83.10
43647;DHT22;56152;49.996;18.980;2022-07-24T06:49:39;23.40;81.80
43647;DHT22;56152;49.996;18.980;2022-07-24T06:54:43;23.60;81.70
43647;DHT22;56152;49.996;18.980;2022-07-24T06:59:45;24.00;79.50
43647;DHT22;56152;49.996;18.980;2022-07-24T07:04:48;24.20;78.10
43647;DHT22;56152;49.996;18.980;2022-07-24T07:09:52;24.40;78.20
43647;DHT22;56152;49.996;18.980;2022-07-24T07:14:53;24.50;77.50
43647;DHT22;56152;49.996;18.980;2022-07-24T07:19:59;24.40;77.70
43647;DHT22;56152;49.996;18.980;2022-07-24T07:25:09;24.60;77.20
43647;DHT22;56152;49.996;18.980;2022-07-24T07:30:12;24.30;76.60
43647;DHT22;56152;49.996;18.980;2022-07-24T07:35:17;24.20;77.30
43647;DHT22;56152;49.996;18.980;2022-07-24T07:40:22;23.60;76.80
43647;DHT22;56152;49.996;18.980;2022-07-24T07:45:24;23.60;77.50
43647;DHT22;56152;49.996;18.980;2022-07-24T07:50:29;23.50;78.10
43647;DHT22;56152;49.996;18.980;2022-07-24T07:55:37;23.90;77.20
43647;DHT22;56152;49.996;18.980;2022-07-24T08:00:42;24.40;74.80
43647;DHT22;56152;49.996;18.980;2022-07-24T08:05:43;24.10;75.60
43647;DHT22;56152;49.996;18.980;2022-07-24T08:10:47;24.30;75.00
43647;DHT22;56152;49.996;18.980;2022-07-24T08:15:50;24.60;73.20
43647;DHT22;56152;49.996;18.980;2022-07-24T08:20:52;24.30;72.80
43647;DHT22;56152;49.996;18.980;2022-07-24T08:25:58;24.40;73.10
43647;DHT22;56152;49.996;18.980;2022-07-24T08:31:01;24.70;71.80
43647;DHT22;56152;49.996;18.980;2022-07-24T08:36:13;24.80;70.00
43647;DHT22;56152;49.996;18.980;2022-07-24T08:41:30;24.80;70.80
43647;DHT22;56152;49.996;18.980;2022-07-24T08:46:39;25.30;69.20
43647;DHT22;56152;49.996;18.980;2022-07-24T08:51:43;25.80;68.10
43647;DHT22;56152;49.996;18.980;2022-07-24T08:56:46;26.10;66.90
43647;DHT22;56152;49.996;18.980;2022-07-24T09:01:50;26.10;65.70
43647;DHT22;56152;49.996;18.980;2022-07-24T09:06:58;25.70;65.40
43647;DHT22;56152;49.996;18.980;2022-07-24T09:12:08;25.80;65.60
43647;DHT22;56152;49.996;18.980;2022-07-24T09:17:15;26.00;64.60
43647;DHT22;56152;49.996;18.980;2022-07-24T09:22:33;26.40;63.90
43647;DHT22;56152;49.996;18.980;2022-07-24T09:27:40;26.00;63.40
43647;DHT22;56152;49.996;18.980;2022-07-24T09:32:51;26.20;62.80
43647;DHT22;56152;49.996;18.980;2022-07-24T09:37:54;26.40;62.70
43647;DHT22;56152;49.996;18.980;2022-07-24T09:43:12;26.50;61.90
43647;DHT22;56152;49.996;18.980;2022-07-24T09:48:14;26.60;60.80
43647;DHT22;56152;49.996;18.980;2022-07-24T09:53:26;26.80;61.50
43647;DHT22;56152;49.996;18.980;2022-07-24T09:58:33;27.00;60.40
43647;DHT22;56152;49.996;18.980;2022-07-24T10:03:37;27.10;60.40
43647;DHT22;56152;49.996;18.980;2022-07-24T10:08:49;26.50;60.00
43647;DHT22;56152;49.996;18.980;2022-07-24T10:13:53;26.10;60.50
43647;DHT22;56152;49.996;18.980;2022-07-24T10:18:56;26.20;60.00
43647;DHT22;56152;49.996;18.980;2022-07-24T10:29:39;26.90;58.60
43647;DHT22;56152;49.996;18.980;2022-07-24T10:34:46;27.10;58.60
43647;DHT22;56152;49.996;18.980;2022-07-24T10:39:58;27.00;57.70
43647;DHT22;56152;49.996;18.980;2022-07-24T10:45:15;26.90;57.50
43647;DHT22;56152;49.996;18.980;2022-07-24T10:50:19;26.30;59.00
43647;DHT22;56152;49.996;18.980;2022-07-24T10:55:29;26.50;59.20
43647;DHT22;56152;49.996;18.980;2022-07-24T11:00:35;26.80;58.80
43647;DHT22;56152;49.996;18.980;2022-07-24T11:05:38;26.50;58.60
43647;DHT22;56152;49.996;18.980;2022-07-24T11:10:44;26.30;58.70
43647;DHT22;56152;49.996;18.980;2022-07-24T11:21:40;26.70;58.20
43647;DHT22;56152;49.996;18.980;2022-07-24T11:26:47;26.90;57.50
43647;DHT22;56152;49.996;18.980;2022-07-24T11:31:53;27.00;57.20
43647;DHT22;56152;49.996;18.980;2022-07-24T11:36:58;27.20;56.50
43647;DHT22;56152;49.996;18.980;2022-07-24T11:42:03;27.30;56.40
43647;DHT22;56152;49.996;18.980;2022-07-24T11:47:06;27.30;56.60
43647;DHT22;56152;49.996;18.980;2022-07-24T11:52:17;26.90;56.70
43647;DHT22;56152;49.996;18.980;2022-07-24T11:57:20;26.60;56.60
43647;DHT22;56152;49.996;18.980;2022-07-24T12:02:29;26.30;56.50
43647;DHT22;56152;49.996;18.980;2022-07-24T12:07:34;26.20;56.00
43647;DHT22;56152;49.996;18.980;2022-07-24T12:12:40;26.40;56.40
43647;DHT22;56152;49.996;18.980;2022-07-24T12:17:54;26.60;56.00
43647;DHT22;56152;49.996;18.980;2022-07-24T12:22:59;26.60;55.00
43647;DHT22;56152;49.996;18.980;2022-07-24T12:28:06;26.50;55.40
43647;DHT22;56152;49.996;18.980;2022-07-24T12:33:18;26.50;55.40
43647;DHT22;56152;49.996;18.980;2022-07-24T12:38:27;26.60;55.20
43647;DHT22;56152;49.996;18.980;2022-07-24T12:43:29;26.80;54.40
43647;DHT22;56152;49.996;18.980;2022-07-24T12:48:31;26.80;54.20
43647;DHT22;56152;49.996;18.980;2022-07-24T12:53:37;26.90;53.70
43647;DHT22;56152;49.996;18.980;2022-07-24T12:58:57;26.90;52.20
43647;DHT22;56152;49.996;18.980;2022-07-24T13:04:00;26.80;52.30
43647;DHT22;56152;49.996;18.980;2022-07-24T13:09:07;26.70;52.60
43647;DHT22;56152;49.996;18.980;2022-07-24T13:14:11;26.70;52.20
43647;DHT22;56152;49.996;18.980;2022-07-24T13:19:13;26.70;51.90
43647;DHT22;56152;49.996;18.980;2022-07-24T13:24:20;26.70;51.40
43647;DHT22;56152;49.996;18.980;2022-07-24T13:29:22;26.60;51.30
43647;DHT22;56152;49.996;18.980;2022-07-24T13:34:24;26.50;51.70
43647;DHT22;56152;49.996;18.980;2022-07-24T13:39:28;26.40;51.30
43647;DHT22;56152;49.996;18.980;2022-07-24T13:44:30;26.40;51.60
43647;DHT22;56152;49.996;18.980;2022-07-24T13:49:32;26.40;51.50
43647;DHT22;56152;49.996;18.980;2022-07-24T13:54:40;26.50;51.10
43647;DHT22;56152;49.996;18.980;2022-07-24T13:59:42;26.60;51.40
43647;DHT22;56152;49.996;18.980;2022-07-24T14:04:47;26.70;50.70
43647;DHT22;56152;49.996;18.980;2022-07-24T14:09:51;26.70;51.60
43647;DHT22;56152;49.996;18.980;2022-07-24T14:14:55;26.60;51.40
43647;DHT22;56152;49.996;18.980;2022-07-24T14:19:59;26.50;51.70
43647;DHT22;56152;49.996;18.980;2022-07-24T14:25:06;26.40;51.50
43647;DHT22;56152;49.996;18.980;2022-07-24T14:30:09;26.40;51.60
43647;DHT22;56152;49.996;18.980;2022-07-24T14:35:11;26.40;51.80
43647;DHT22;56152;49.996;18.980;2022-07-24T14:40:18;26.30;51.80
43647;DHT22;56152;49.996;18.980;2022-07-24T14:45:21;26.20;51.90
43647;DHT22;56152;49.996;18.980;2022-07-24T14:50:23;26.20;51.90
43647;DHT22;56152;49.996;18.980;2022-07-24T14:55:28;26.10;51.80
43647;DHT22;56152;49.996;18.980;2022-07-24T15:00:30;26.10;51.80
43647;DHT22;56152;49.996;18.980;2022-07-24T15:05:31;26.10;51.90
43647;DHT22;56152;49.996;18.980;2022-07-24T15:10:35;26.10;51.30
43647;DHT22;56152;49.996;18.980;2022-07-24T15:15:37;26.00;51.30
43647;DHT22;56152;49.996;18.980;2022-07-24T15:20:40;25.90;50.50
43647;DHT22;56152;49.996;18.980;2022-07-24T15:25:44;25.80;50.60
43647;DHT22;56152;49.996;18.980;2022-07-24T15:30:48;25.80;50.60
43647;DHT22;56152;49.996;18.980;2022-07-24T15:35:54;25.70;49.80
43647;DHT22;56152;49.996;18.980;2022-07-24T15:41:01;25.70;49.90
43647;DHT22;56152;49.996;18.980;2022-07-24T15:46:03;25.60;49.90
43647;DHT22;56152;49.996;18.980;2022-07-24T15:51:05;25.50;49.80
43647;DHT22;56152;49.996;18.980;2022-07-24T15:56:08;25.50;49.50
43647;DHT22;56152;49.996;18.980;2022-07-24T16:01:21;25.30;49.40
43647;DHT22;56152;49.996;18.980;2022-07-24T16:06:24;25.30;49.30
43647;DHT22;56152;49.996;18.980;2022-07-24T16:11:28;25.30;49.10
43647;DHT22;56152;49.996;18.980;2022-07-24T16:16:30;25.20;48.80
43647;DHT22;56152;49.996;18.980;2022-07-24T16:21:31;25.10;48.40
43647;DHT22;56152;49.996;18.980;2022-07-24T16:26:36;25.00;48.50
43647;DHT22;56152;49.996;18.980;2022-07-24T16:31:40;25.00;49.10
43647;DHT22;56152;49.996;18.980;2022-07-24T16:36:49;24.90;48.50
43647;DHT22;56152;49.996;18.980;2022-07-24T16:41:53;24.80;48.60
43647;DHT22;56152;49.996;18.980;2022-07-24T16:46:58;24.70;48.50
43647;DHT22;56152;49.996;18.980;2022-07-24T16:52:00;24.60;48.60
43647;DHT22;56152;49.996;18.980;2022-07-24T16:57:06;24.30;48.70
43647;DHT22;56152;49.996;18.980;2022-07-24T17:02:08;24.10;49.00
43647;DHT22;56152;49.996;18.980;2022-07-24T17:07:10;24.00;49.60
43647;DHT22;56152;49.996;18.980;2022-07-24T17:12:16;24.00;49.60
43647;DHT22;56152;49.996;18.980;2022-07-24T17:17:18;23.90;49.50
43647;DHT22;56152;49.996;18.980;2022-07-24T17:22:22;23.90;49.80
43647;DHT22;56152;49.996;18.980;2022-07-24T17:27:26;23.90;50.10
43647;DHT22;56152;49.996;18.980;2022-07-24T17:32:28;23.90;50.30
43647;DHT22;56152;49.996;18.980;2022-07-24T17:37:31;23.80;50.70
43647;DHT22;56152;49.996;18.980;2022-07-24T17:42:38;23.70;51.20
43647;DHT22;56152;49.996;18.980;2022-07-24T17:47:42;23.70;51.70
43647;DHT22;56152;49.996;18.980;2022-07-24T17:52:44;23.50;51.90
43647;DHT22;56152;49.996;18.980;2022-07-24T17:57:48;23.40;52.50
43647;DHT22;56152;49.996;18.980;2022-07-24T18:02:50;23.30;53.90
43647;DHT22;56152;49.996;18.980;2022-07-24T18:07:56;23.10;54.90
43647;DHT22;56152;49.996;18.980;2022-07-24T18:13:00;23.00;55.50
43647;DHT22;56152;49.996;18.980;2022-07-24T18:18:04;22.90;56.60
43647;DHT22;56152;49.996;18.980;2022-07-24T18:23:07;22.60;57.30
43647;DHT22;56152;49.996;18.980;2022-07-24T18:28:19;22.40;58.50
43647;DHT22;56152;49.996;18.980;2022-07-24T18:33:21;22.00;59.40
43647;DHT22;56152;49.996;18.980;2022-07-24T18:38:23;21.70;60.20
43647;DHT22;56152;49.996;18.980;2022-07-24T18:43:27;21.40;61.80
43647;DHT22;56152;49.996;18.980;2022-07-24T18:48:32;21.30;62.00
43647;DHT22;56152;49.996;18.980;2022-07-24T18:53:34;21.20;63.10
43647;DHT22;56152;49.996;18.980;2022-07-24T18:58:41;21.00;64.00
43647;DHT22;56152;49.996;18.980;2022-07-24T19:03:43;20.70;64.80
43647;DHT22;56152;49.996;18.980;2022-07-24T19:08:45;20.50;65.60
43647;DHT22;56152;49.996;18.980;2022-07-24T19:13:48;20.30;66.20
43647;DHT22;56152;49.996;18.980;2022-07-24T19:18:50;20.20;66.90
43647;DHT22;56152;49.996;18.980;2022-07-24T19:23:53;20.00;67.30
43647;DHT22;56152;49.996;18.980;2022-07-24T19:28:58;19.90;67.80
43647;DHT22;56152;49.996;18.980;2022-07-24T19:34:00;19.60;68.70
43647;DHT22;56152;49.996;18.980;2022-07-24T19:39:08;19.40;69.50
43647;DHT22;56152;49.996;18.980;2022-07-24T19:50:10;19.30;70.10
43647;DHT22;56152;49.996;18.980;2022-07-24T19:55:12;19.30;69.50
43647;DHT22;56152;49.996;18.980;2022-07-24T20:00:14;19.20;69.30
43647;DHT22;56152;49.996;18.980;2022-07-24T20:05:22;19.20;69.60
43647;DHT22;56152;49.996;18.980;2022-07-24T20:10:27;19.10;69.70
43647;DHT22;56152;49.996;18.980;2022-07-24T20:15:34;18.90;69.90
43647;DHT22;56152;49.996;18.980;2022-07-24T20:20:37;18.80;70.20
43647;DHT22;56152;49.996;18.980;2022-07-24T20:25:39;18.60;70.30
43647;DHT22;56152;49.996;18.980;2022-07-24T20:30:48;18.50;71.00
43647;DHT22;56152;49.996;18.980;2022-07-24T20:36:04;18.40;72.00
43647;DHT22;56152;49.996;18.980;2022-07-24T20:41:06;18.20;72.40
43647;DHT22;56152;49.996;18.980;2022-07-24T20:46:09;18.10;73.40
43647;DHT22;56152;49.996;18.980;2022-07-24T20:51:13;17.90;73.40
43647;DHT22;56152;49.996;18.980;2022-07-24T20:56:20;17.80;73.90
43647;DHT22;56152;49.996;18.980;2022-07-24T21:01:22;17.70;74.60
43647;DHT22;56152;49.996;18.980;2022-07-24T21:06:44;17.60;75.00
43647;DHT22;56152;49.996;18.980;2022-07-24T21:11:47;17.50;75.50
43647;DHT22;56152;49.996;18.980;2022-07-24T21:16:49;17.30;75.60
43647;DHT22;56152;49.996;18.980;2022-07-24T21:21:59;17.10;76.20
43647;DHT22;56152;49.996;18.980;2022-07-24T21:27:00;17.00;76.90
43647;DHT22;56152;49.996;18.980;2022-07-24T21:32:04;16.90;77.00
43647;DHT22;56152;49.996;18.980;2022-07-24T21:37:13;16.80;77.40
43647;DHT22;56152;49.996;18.980;2022-07-24T21:42:15;16.70;78.10
43647;DHT22;56152;49.996;18.980;2022-07-24T21:47:37;16.70;78.80
43647;DHT22;56152;49.996;18.980;2022-07-24T21:52:46;16.70;78.40
43647;DHT22;56152;49.996;18.980;2022-07-24T21:57:52;16.70;78.30
43647;DHT22;56152;49.996;18.980;2022-07-24T22:02:54;16.60;78.30
43647;DHT22;56152;49.996;18.980;2022-07-24T22:07:58;16.50;78.50
43647;DHT22;56152;49.996;18.980;2022-07-24T22:13:26;16.50;78.90
43647;DHT22;56152;49.996;18.980;2022-07-24T22:18:31;16.40;79.20
43647;DHT22;56152;49.996;18.980;2022-07-24T22:23:38;16.30;79.40
43647;DHT22;56152;49.996;18.980;2022-07-24T22:34:26;16.10;80.20
43647;DHT22;56152;49.996;18.980;2022-07-24T22:39:30;16.00;80.60
43647;DHT22;56152;49.996;18.980;2022-07-24T22:44:34;16.00;80.90
43647;DHT22;56152;49.996;18.980;2022-07-24T22:49:40;15.90;81.90
43647;DHT22;56152;49.996;18.980;2022-07-24T22:54:53;15.80;81.50
43647;DHT22;56152;49.996;18.980;2022-07-24T22:59:55;15.70;81.80
43647;DHT22;56152;49.996;18.980;2022-07-24T23:11:03;15.60;82.30
43647;DHT22;56152;49.996;18.980;2022-07-24T23:16:06;15.40;82.50
43647;DHT22;56152;49.996;18.980;2022-07-24T23:21:09;15.40;82.50
43647;DHT22;56152;49.996;18.980;2022-07-24T23:26:13;15.30;82.60
43647;DHT22;56152;49.996;18.980;2022-07-24T23:43:11;14.90;83.70
43647;DHT22;56152;49.996;18.980;2022-07-24T23:48:13;14.80;83.70
43647;DHT22;56152;49.996;18.980;2022-07-24T23:53:31;14.70;83.90
